createdAt,value
2022-11-03T00:03:13.087Z,4.06
2022-11-03T00:05:14.313Z,4.06
2022-11-03T00:07:16.183Z,4.06
2022-11-03T00:09:17.285Z,4.06
2022-11-03T00:11:18.408Z,4.06
2022-11-03T00:13:20.152Z,4.06
2022-11-03T00:15:21.979Z,4.06
2022-11-03T00:17:24.045Z,4.06
2022-11-03T00:19:25.221Z,4.06
2022-11-03T00:21:26.377Z,4.06
2022-11-03T00:23:27.720Z,4.05
2022-11-03T00:25:28.921Z,4.05
2022-11-03T00:27:30.834Z,4.06
2022-11-03T00:29:32.772Z,4.05
2022-11-03T00:31:34.222Z,4.05
2022-11-03T00:35:36.833Z,4.05
2022-11-03T00:37:38.562Z,4.06
2022-11-03T00:39:40.029Z,4.05
2022-11-03T00:41:41.689Z,4.05
2022-11-03T00:43:43.169Z,4.05
2022-11-03T00:45:44.685Z,4.05
2022-11-03T00:47:46.008Z,4.05
2022-11-03T00:51:48.228Z,4.05
2022-11-03T00:53:49.343Z,4.05
2022-11-03T00:55:50.786Z,4.05
2022-11-03T00:57:52.613Z,4.05
2022-11-03T01:01:55.671Z,4.05
2022-11-03T01:03:56.952Z,4.05
2022-11-03T01:05:58.842Z,4.04
2022-11-03T01:10:02.584Z,4.05
2022-11-03T01:12:03.833Z,4.05
2022-11-03T01:14:05.574Z,4.05
2022-11-03T01:18:08.847Z,4.04
2022-11-03T01:20:10.329Z,4.04
2022-11-03T01:22:11.557Z,4.04
2022-11-03T01:24:13.107Z,4.05
2022-11-03T01:26:14.754Z,4.04
2022-11-03T01:28:16.606Z,4.04
2022-11-03T01:30:17.987Z,4.05
2022-11-03T01:34:21.060Z,4.04
2022-11-03T01:36:23.004Z,4.04
2022-11-03T01:38:24.481Z,4.04
2022-11-03T01:40:25.687Z,4.04
2022-11-03T01:44:28.829Z,4.04
2022-11-03T01:46:30.437Z,4.04
2022-11-03T01:48:31.643Z,4.04
2022-11-03T01:50:33.351Z,4.04
2022-11-03T01:52:35.328Z,4.04
2022-11-03T01:56:38.234Z,4.04
2022-11-03T02:00:41.075Z,4.04
2022-11-03T02:02:42.625Z,4.04
2022-11-03T02:04:44.131Z,4.04
2022-11-03T02:06:45.538Z,4.04
2022-11-03T02:08:46.853Z,4.04
2022-11-03T02:10:48.217Z,4.04
2022-11-03T02:12:49.389Z,4.04
2022-11-03T02:16:52.405Z,4.04
2022-11-03T02:18:53.864Z,4.04
2022-11-03T02:22:56.809Z,4.04
2022-11-03T02:24:57.926Z,4.04
2022-11-03T02:26:59.439Z,4.03
2022-11-03T02:29:00.492Z,4.03
2022-11-03T02:33:02.955Z,4.04
2022-11-03T02:35:04.278Z,4.03
2022-11-03T02:37:06.105Z,4.03
2022-11-03T02:39:07.322Z,4.03
2022-11-03T02:40:00.298Z,4.03
2022-11-03T02:42:02.165Z,4.03
2022-11-03T02:44:03.952Z,4.03
2022-11-03T02:46:05.629Z,4.03
2022-11-03T02:48:06.971Z,4.03
2022-11-03T02:50:08.473Z,4.03
2022-11-03T02:54:11.586Z,4.03
2022-11-03T02:56:13.437Z,4.03
2022-11-03T02:58:14.737Z,4.03
2022-11-03T03:00:16.220Z,4.03
2022-11-03T03:02:17.635Z,4.03
2022-11-03T03:04:19.130Z,4.03
2022-11-03T03:06:21.055Z,4.03
2022-11-03T03:10:24.637Z,4.03
2022-11-03T03:12:25.665Z,4.03
2022-11-03T03:14:27.125Z,4.03
2022-11-03T03:16:28.459Z,4.03
2022-11-03T03:18:30.081Z,4.03
2022-11-03T03:20:31.955Z,4.03
2022-11-03T03:22:33.797Z,4.02
2022-11-03T03:26:36.429Z,4.03
2022-11-03T03:28:37.790Z,4.02
2022-11-03T03:30:39.507Z,4.02
2022-11-03T03:32:40.879Z,4.02
2022-11-03T03:36:44.312Z,4.02
2022-11-03T03:38:45.732Z,4.02
2022-11-03T03:40:47.628Z,4.02
2022-11-03T03:42:48.465Z,4.02
2022-11-03T03:44:50.469Z,4.02
2022-11-03T03:48:52.844Z,4.02
2022-11-03T03:52:55.633Z,4.02
2022-11-03T03:54:57.062Z,4.02
2022-11-03T03:56:58.193Z,4.02
2022-11-03T03:58:59.444Z,4.02
2022-11-03T04:01:01.062Z,4.02
2022-11-03T04:03:03.039Z,4.02
2022-11-03T04:07:06.607Z,4.02
2022-11-03T04:11:09.351Z,4.02
2022-11-03T04:13:11.118Z,4.02
2022-11-03T04:15:12.289Z,4.02
2022-11-03T04:19:15.105Z,4.02
2022-11-03T04:21:17.085Z,4.02
2022-11-03T04:23:18.440Z,4.02
2022-11-03T04:25:19.706Z,4.02
2022-11-03T04:27:21.331Z,4.02
2022-11-03T04:31:24.096Z,4.02
2022-11-03T04:35:27.153Z,4.01
2022-11-03T04:37:29.038Z,4.01
2022-11-03T04:39:30.452Z,4.02
2022-11-03T04:41:32.167Z,4.01
2022-11-03T04:43:33.429Z,4.01
2022-11-03T04:45:35.119Z,4.01
2022-11-03T04:47:36.807Z,4.02
2022-11-03T04:51:39.839Z,4.01
2022-11-03T04:53:40.907Z,4.01
2022-11-03T04:55:42.389Z,4.01
2022-11-03T04:57:44.151Z,4.01
2022-11-03T05:01:46.523Z,4.01
2022-11-03T05:03:48.155Z,4.01
2022-11-03T05:07:50.907Z,4.01
2022-11-03T05:09:52.109Z,4.01
2022-11-03T05:11:53.781Z,4.01
2022-11-03T05:13:55.787Z,4.01
2022-11-03T05:17:59.261Z,4.01
2022-11-03T05:20:00.888Z,4.01
2022-11-03T05:22:02.103Z,4.01
2022-11-03T05:24:03.878Z,4.01
2022-11-03T05:26:05.615Z,4.01
2022-11-03T05:30:08.961Z,4
2022-11-03T05:32:10.224Z,4.01
2022-11-03T05:34:12.097Z,4.01
2022-11-03T05:36:13.876Z,4
2022-11-03T05:38:15.078Z,4.01
2022-11-03T05:40:16.863Z,4.01
2022-11-03T05:42:18.044Z,4.01
2022-11-03T05:44:19.420Z,4.01
2022-11-03T05:46:21.364Z,4
2022-11-03T05:48:22.579Z,4.01
2022-11-03T05:50:24.512Z,4.01
2022-11-03T05:52:25.683Z,4
2022-11-03T05:54:27.008Z,4.01
2022-11-03T05:56:28.345Z,4
2022-11-03T06:00:31.376Z,4
2022-11-03T06:02:32.387Z,4
2022-11-03T06:04:33.963Z,4
2022-11-03T06:06:35.552Z,4
2022-11-03T06:08:37.896Z,4
2022-11-03T06:10:38.677Z,4
2022-11-03T06:12:40.061Z,4
2022-11-03T06:16:43.439Z,4
2022-11-03T06:18:44.960Z,4
2022-11-03T06:20:46.979Z,4
2022-11-03T06:22:48.626Z,4
2022-11-03T06:26:50.976Z,4
2022-11-03T06:28:52.244Z,4
2022-11-03T06:30:53.769Z,4
2022-11-03T06:32:55.610Z,4
2022-11-03T06:34:57.212Z,4
2022-11-03T06:36:59.237Z,4
2022-11-03T06:39:00.309Z,4
2022-11-03T06:41:02.076Z,4
2022-11-03T06:43:03.380Z,4
2022-11-03T06:45:04.987Z,3.99
2022-11-03T06:49:07.431Z,4
2022-11-03T06:51:09.052Z,4
2022-11-03T06:53:10.633Z,4
2022-11-03T06:55:12.316Z,4
2022-11-03T06:59:15.156Z,4
2022-11-03T07:01:16.707Z,4
2022-11-03T07:03:18.377Z,4
2022-11-03T07:05:19.865Z,4
2022-11-03T07:09:22.305Z,4.03
2022-11-03T07:11:23.730Z,4.04
2022-11-03T07:13:24.968Z,4.04
2022-11-03T07:15:26.580Z,4.05
2022-11-03T07:17:28.031Z,4.05
2022-11-03T07:19:29.019Z,4.07
2022-11-03T07:21:30.988Z,4.08
2022-11-03T07:23:33.296Z,4.08
2022-11-03T07:25:35.209Z,4.08
2022-11-03T07:27:37.329Z,4.08
2022-11-03T07:31:40.252Z,4.09
2022-11-03T07:33:41.455Z,4.1
2022-11-03T07:36:08.868Z,4.1
2022-11-03T07:37:45.038Z,4.1
2022-11-03T07:41:48.229Z,4.11
2022-11-03T07:43:49.856Z,4.11
2022-11-03T07:45:50.975Z,4.12
2022-11-03T07:47:52.385Z,4.11
2022-11-03T07:49:54.376Z,4.12
2022-11-03T07:51:56.499Z,4.12
2022-11-03T07:58:01.156Z,4.14
2022-11-03T08:00:05.333Z,4.13
2022-11-03T08:02:04.670Z,4.14
2022-11-03T08:04:06.098Z,4.14
2022-11-03T08:08:09.324Z,4.15
2022-11-03T08:10:11.544Z,4.15
2022-11-03T08:12:12.705Z,4.15
2022-11-03T08:14:14.265Z,4.16
2022-11-03T08:16:16.079Z,4.16
2022-11-03T08:18:17.935Z,4.16
2022-11-03T08:20:19.399Z,4.16
2022-11-03T08:22:20.512Z,4.16
2022-11-03T08:24:21.628Z,4.17
2022-11-03T08:26:22.979Z,4.17
2022-11-03T08:28:23.873Z,4.17
2022-11-03T08:30:25.786Z,4.17
2022-11-03T08:34:28.957Z,4.18
2022-11-03T08:36:30.628Z,4.18
2022-11-03T08:38:31.646Z,4.18
2022-11-03T08:40:32.976Z,4.18
2022-11-03T08:42:34.570Z,4.18
2022-11-03T08:44:35.853Z,4.19
2022-11-03T08:46:36.848Z,4.19
2022-11-03T08:50:39.513Z,4.19
2022-11-03T08:52:40.639Z,4.19
2022-11-03T08:54:42.429Z,4.19
2022-11-03T08:56:44.023Z,4.19
2022-11-03T08:58:45.843Z,4.19
2022-11-03T09:00:47.553Z,4.19
2022-11-03T09:02:48.918Z,4.19
2022-11-03T09:06:51.907Z,4.2
2022-11-03T09:10:54.678Z,4.19
2022-11-03T09:12:55.773Z,4.2
2022-11-03T09:14:57.143Z,4.19
2022-11-03T09:16:58.660Z,4.2
2022-11-03T09:19:00.165Z,4.2
2022-11-03T09:23:02.874Z,4.2
2022-11-03T09:25:04.610Z,4.2
2022-11-03T09:25:48.357Z,4.2
2022-11-03T09:27:49.790Z,4.2
2022-11-03T09:30:06.949Z,4.2
2022-11-03T09:31:52.115Z,4.2
2022-11-03T09:33:53.197Z,4.2
2022-11-03T09:35:54.984Z,4.2
2022-11-03T09:37:56.358Z,4.2
2022-11-03T09:39:57.783Z,4.2
2022-11-03T09:44:00.275Z,4.2
2022-11-03T09:46:01.421Z,4.2
2022-11-03T09:48:02.560Z,4.2
2022-11-03T09:50:04.052Z,4.2
2022-11-03T09:52:05.400Z,4.2
2022-11-03T09:54:06.954Z,4.2
2022-11-03T09:56:08.286Z,4.2
2022-11-03T09:58:09.644Z,4.2
2022-11-03T10:00:10.584Z,4.2
2022-11-03T10:02:11.767Z,4.19
2022-11-03T10:04:13.224Z,4.19
2022-11-03T10:06:15.409Z,4.19
2022-11-03T10:10:16.114Z,4.19
2022-11-03T10:12:17.415Z,4.19
2022-11-03T10:14:18.803Z,4.19
2022-11-03T10:16:20.078Z,4.19
2022-11-03T10:20:22.693Z,4.19
2022-11-03T10:22:24.053Z,4.18
2022-11-03T10:24:25.706Z,4.18
2022-11-03T10:28:28.626Z,4.18
2022-11-03T10:30:36.190Z,4.18
2022-11-03T10:32:32.015Z,4.18
2022-11-03T10:34:32.969Z,4.18
2022-11-03T10:36:34.347Z,4.18
2022-11-03T10:38:36.091Z,4.18
2022-11-03T10:42:38.711Z,4.18
2022-11-03T10:44:39.781Z,4.18
2022-11-03T10:46:51.186Z,4.18
2022-11-03T10:48:42.300Z,4.17
2022-11-03T10:52:45.732Z,4.17
2022-11-03T10:54:46.617Z,4.18
2022-11-03T10:56:48.221Z,4.18
2022-11-03T10:58:49.603Z,4.18
2022-11-03T11:00:51.512Z,4.17
2022-11-03T11:02:52.405Z,4.17
2022-11-03T11:04:54.251Z,4.17
2022-11-03T11:08:59.882Z,4.17
2022-11-03T11:10:58.824Z,4.17
2022-11-03T11:13:00.558Z,4.17
2022-11-03T11:15:02.172Z,4.17
2022-11-03T11:17:03.066Z,4.17
2022-11-03T11:19:04.226Z,4.17
2022-11-03T11:21:05.081Z,4.17
2022-11-03T11:25:07.858Z,4.17
2022-11-03T11:27:09.188Z,4.17
2022-11-03T11:29:10.647Z,4.17
2022-11-03T11:31:11.508Z,4.17
2022-11-03T11:33:12.791Z,4.17
2022-11-03T11:35:14.108Z,4.17
2022-11-03T11:37:14.974Z,4.17
2022-11-03T11:41:17.701Z,4.17
2022-11-03T11:43:19.292Z,4.17
2022-11-03T11:45:20.247Z,4.17
2022-11-03T11:47:22.092Z,4.17
2022-11-03T11:49:23.250Z,4.17
2022-11-03T11:51:24.607Z,4.17
2022-11-03T11:53:30.686Z,4.16
2022-11-03T11:57:27.984Z,4.17
2022-11-03T11:59:29.238Z,4.17
2022-11-03T12:01:30.514Z,4.16
2022-11-03T12:03:31.673Z,4.16
2022-11-03T12:07:34.235Z,4.16
2022-11-03T12:09:35.551Z,4.16
2022-11-03T12:13:38.461Z,4.16
2022-11-03T12:15:39.671Z,4.16
2022-11-03T12:17:41.037Z,4.16
2022-11-03T12:19:42.766Z,4.16
2022-11-03T12:23:45.206Z,4.16
2022-11-03T12:25:46.507Z,4.16
2022-11-03T12:27:47.428Z,4.16
2022-11-03T12:29:48.348Z,4.16
2022-11-03T12:33:51.595Z,4.16
2022-11-03T12:35:52.846Z,4.16
2022-11-03T12:39:54.984Z,4.16
2022-11-03T12:41:56.299Z,4.16
2022-11-03T12:43:57.527Z,4.16
2022-11-03T12:45:58.690Z,4.16
2022-11-03T12:50:01.722Z,4.15
2022-11-03T12:52:07.707Z,4.16
2022-11-03T12:54:05.110Z,4.16
2022-11-03T12:56:06.834Z,4.15
2022-11-03T12:58:08.762Z,4.16
2022-11-03T13:00:09.971Z,4.15
2022-11-03T13:02:11.295Z,4.16
2022-11-03T13:06:14.702Z,4.15
2022-11-03T13:10:17.427Z,4.15
2022-11-03T13:12:18.830Z,4.15
2022-11-03T13:14:20.369Z,4.15
2022-11-03T13:16:21.786Z,4.15
2022-11-03T13:18:23.054Z,4.15
2022-11-03T13:22:25.853Z,4.15
2022-11-03T13:24:27.599Z,4.15
2022-11-03T13:26:28.928Z,4.15
2022-11-03T13:28:29.838Z,4.15
2022-11-03T13:32:32.878Z,4.15
2022-11-03T13:34:34.270Z,4.15
2022-11-03T13:38:36.733Z,4.15
2022-11-03T13:40:58.532Z,4.14
2022-11-03T13:42:39.316Z,4.14
2022-11-03T13:44:41.176Z,4.15
2022-11-03T13:50:45.031Z,4.14
2022-11-03T13:52:46.896Z,4.14
2022-11-03T14:00:52.248Z,4.14
2022-11-03T14:04:54.721Z,4.14
2022-11-03T14:06:55.940Z,4.14
2022-11-03T14:08:56.927Z,4.14
2022-11-03T14:10:58.492Z,4.14
2022-11-03T14:15:01.113Z,4.14
2022-11-03T14:17:02.779Z,4.14
2022-11-03T14:19:04.151Z,4.14
2022-11-03T14:21:05.179Z,4.14
2022-11-03T14:23:06.918Z,4.14
2022-11-03T14:25:07.618Z,4.14
2022-11-03T14:27:08.840Z,4.14
2022-11-03T14:31:11.485Z,4.14
2022-11-03T14:33:12.995Z,4.14
2022-11-03T14:37:16.249Z,4.14
2022-11-03T14:39:17.153Z,4.14
2022-11-03T14:41:18.762Z,4.14
2022-11-03T14:43:19.661Z,4.14
2022-11-03T14:47:21.638Z,4.14
2022-11-03T14:49:22.616Z,4.14
2022-11-03T14:51:24.370Z,4.14
2022-11-03T14:53:26.244Z,4.14
2022-11-03T14:57:28.658Z,4.13
2022-11-03T14:59:29.774Z,4.14
2022-11-03T15:03:32.339Z,4.13
2022-11-03T15:05:34.235Z,4.13
2022-11-03T15:07:36.074Z,4.13
2022-11-03T15:09:37.122Z,4.13
2022-11-03T15:13:43.934Z,4.13
2022-11-03T15:15:41.024Z,4.13
2022-11-03T15:17:42.838Z,4.13
2022-11-03T15:19:43.856Z,4.13
2022-11-03T15:21:45.445Z,4.13
2022-11-03T15:25:47.803Z,4.13
2022-11-03T15:29:50.001Z,4.13
2022-11-03T15:31:51.327Z,4.13
2022-11-03T15:33:52.393Z,4.13
2022-11-03T15:35:53.795Z,4.13
2022-11-03T15:37:55.208Z,4.13
2022-11-03T15:39:59.602Z,4.13
2022-11-03T15:41:57.964Z,4.13
2022-11-03T15:46:00.165Z,4.12
2022-11-03T15:48:02.086Z,4.13
2022-11-03T15:50:03.261Z,4.12
2022-11-03T15:52:04.324Z,4.12
2022-11-03T15:56:07.206Z,4.12
2022-11-03T15:58:08.566Z,4.12
2022-11-03T16:00:10.022Z,4.12
2022-11-03T16:02:27.547Z,4.12
2022-11-03T16:04:12.574Z,4.12
2022-11-03T16:06:13.481Z,4.12
2022-11-03T16:08:15.060Z,4.12
2022-11-03T16:11:00.046Z,4.12
2022-11-03T16:13:01.862Z,4.12
2022-11-03T16:15:03.149Z,4.12
2022-11-03T16:17:04.800Z,4.12
2022-11-03T16:19:06.567Z,4.12
2022-11-03T16:23:09.793Z,4.12
2022-11-03T16:25:12.870Z,4.12
2022-11-03T16:27:12.066Z,4.12
2022-11-03T16:29:13.191Z,4.12
2022-11-03T16:33:16.613Z,4.12
2022-11-03T16:35:17.534Z,4.12
2022-11-03T16:39:20.799Z,4.12
2022-11-03T16:41:22.087Z,4.12
2022-11-03T16:43:23.240Z,4.12
2022-11-03T16:45:24.547Z,4.12
2022-11-03T16:49:27.436Z,4.12
2022-11-03T16:51:29.194Z,4.12
2022-11-03T16:53:30.562Z,4.12
2022-11-03T16:55:31.843Z,4.11
2022-11-03T16:57:32.952Z,4.11
2022-11-03T16:59:34.815Z,4.11
2022-11-03T17:01:36.585Z,4.12
2022-11-03T17:05:38.956Z,4.11
2022-11-03T17:07:39.979Z,4.11
2022-11-03T17:09:41.563Z,4.11
2022-11-03T17:11:43.150Z,4.11
2022-11-03T17:13:44.511Z,4.11
2022-11-03T17:15:45.866Z,4.11
2022-11-03T17:17:47.560Z,4.11
2022-11-03T17:21:50.006Z,4.11
2022-11-03T17:23:51.833Z,4.11
2022-11-03T17:25:53.450Z,4.11
2022-11-03T17:27:54.920Z,4.11
2022-11-03T17:31:57.223Z,4.11
2022-11-03T17:33:58.666Z,4.11
2022-11-03T17:38:01.252Z,4.1
2022-11-03T17:40:02.378Z,4.11
2022-11-03T17:42:03.685Z,4.11
2022-11-03T17:44:05.007Z,4.11
2022-11-03T17:48:08.147Z,4.1
2022-11-03T17:50:09.359Z,4.1
2022-11-03T17:52:10.818Z,4.1
2022-11-03T17:54:12.652Z,4.1
2022-11-03T17:56:31.022Z,4.1
2022-11-03T17:58:15.551Z,4.1
2022-11-03T18:00:17.290Z,4.1
2022-11-03T18:04:19.571Z,4.1
2022-11-03T18:06:20.507Z,4.1
2022-11-03T18:08:21.990Z,4.1
2022-11-03T18:10:23.570Z,4.1
2022-11-03T18:14:26.763Z,4.1
2022-11-03T18:16:27.961Z,4.1
2022-11-03T18:20:30.471Z,4.1
2022-11-03T18:22:31.786Z,4.1
2022-11-03T18:24:33.034Z,4.1
2022-11-03T18:26:34.196Z,4.1
2022-11-03T18:30:37.616Z,4.1
2022-11-03T18:32:39.095Z,4.1
2022-11-03T18:36:42.144Z,4.1
2022-11-03T18:38:43.605Z,4.1
2022-11-03T18:40:45.187Z,4.1
2022-11-03T18:42:46.533Z,4.1
2022-11-03T18:46:49.490Z,4.1
2022-11-03T18:48:50.946Z,4.1
2022-11-03T18:50:52.754Z,4.1
2022-11-03T18:52:53.731Z,4.1
2022-11-03T18:56:57.006Z,4.1
2022-11-03T18:58:58.343Z,4.1
2022-11-03T19:00:59.537Z,4.09
2022-11-03T19:03:01.145Z,4.09
2022-11-03T19:05:02.544Z,4.09
2022-11-03T19:07:03.617Z,4.09
2022-11-03T19:09:05.158Z,4.1
2022-11-03T19:13:08.473Z,4.09
2022-11-03T19:15:10.209Z,4.09
2022-11-03T19:19:12.972Z,4.09
2022-11-03T19:21:14.743Z,4.09
2022-11-03T19:23:16.257Z,4.09
2022-11-03T19:25:17.683Z,4.09
2022-11-03T19:29:19.953Z,4.09
2022-11-03T19:31:21.396Z,4.09
2022-11-03T19:33:22.421Z,4.09
2022-11-03T19:35:24.157Z,4.09
2022-11-03T19:37:25.522Z,4.09
2022-11-03T19:39:26.914Z,4.09
2022-11-03T19:41:28.185Z,4.08
2022-11-03T19:45:30.452Z,4.08
2022-11-03T19:47:32.791Z,4.09
2022-11-03T19:49:32.716Z,4.09
2022-11-03T19:51:34.427Z,4.09
2022-11-03T19:55:37.366Z,4.08
2022-11-03T19:57:38.766Z,4.08
2022-11-03T19:59:40.356Z,4.08
2022-11-03T20:01:41.611Z,4.08
2022-11-03T20:03:43.109Z,4.08
2022-11-03T20:05:48.898Z,4.08
2022-11-03T20:07:45.619Z,4.08
2022-11-03T20:11:48.096Z,4.08
2022-11-03T20:13:49.178Z,4.08
2022-11-03T20:15:52.691Z,4.08
2022-11-03T20:17:52.365Z,4.08
2022-11-03T20:19:54.239Z,4.08
2022-11-03T20:21:55.906Z,4.08
2022-11-03T20:23:56.943Z,4.08
2022-11-03T20:28:00.092Z,4.08
2022-11-03T20:30:01.410Z,4.08
2022-11-03T20:32:02.775Z,4.08
2022-11-03T20:34:04.023Z,4.08
2022-11-03T20:36:05.429Z,4.08
2022-11-03T20:38:06.767Z,4.08
2022-11-03T20:40:07.628Z,4.08
2022-11-03T20:44:10.769Z,4.08
2022-11-03T20:46:12.644Z,4.08
2022-11-03T20:48:13.890Z,4.08
2022-11-03T20:50:14.924Z,4.08
2022-11-03T20:52:17.316Z,4.08
2022-11-03T20:54:17.994Z,4.08
2022-11-03T20:56:20.151Z,4.08
2022-11-03T21:00:23.213Z,4.07
2022-11-03T21:02:25.188Z,4.07
2022-11-03T21:04:26.168Z,4.08
2022-11-03T21:06:27.625Z,4.07
2022-11-03T21:10:30.251Z,4.07
2022-11-03T21:12:31.399Z,4.07
2022-11-03T21:14:32.930Z,4.07
2022-11-03T21:16:34.663Z,4.07
2022-11-03T21:18:35.603Z,4.07
2022-11-03T21:20:36.699Z,4.07
2022-11-03T21:22:51.741Z,4.07
2022-11-03T21:26:41.298Z,4.07
2022-11-03T21:28:43.057Z,4.07
2022-11-03T21:30:44.538Z,4.07
2022-11-03T21:32:45.887Z,4.07
2022-11-03T21:34:47.632Z,4.07
2022-11-03T21:36:48.659Z,4.07
2022-11-03T21:38:50.392Z,4.07
2022-11-03T21:42:53.475Z,4.07
2022-11-03T21:44:55.302Z,4.07
2022-11-03T21:46:56.788Z,4.06
2022-11-03T21:48:58.382Z,4.07
2022-11-03T21:53:01.388Z,4.07
2022-11-03T21:55:02.941Z,4.07
2022-11-03T21:59:06.298Z,4.07
2022-11-03T22:01:07.887Z,4.07
2022-11-03T22:03:09.148Z,4.06
2022-11-03T22:05:11.055Z,4.06
2022-11-03T22:09:13.171Z,4.06
2022-11-03T22:11:14.741Z,4.06
2022-11-03T22:13:16.629Z,4.06
2022-11-03T22:15:18.298Z,4.06
2022-11-03T22:17:20.074Z,4.06
2022-11-03T22:19:21.738Z,4.06
2022-11-03T22:21:23.226Z,4.06
2022-11-03T22:25:26.015Z,4.06
2022-11-03T22:27:27.899Z,4.06
2022-11-03T22:29:29.619Z,4.06
2022-11-03T22:31:31.003Z,4.06
2022-11-03T22:35:33.470Z,4.06
2022-11-03T22:39:35.857Z,4.06
2022-11-03T22:41:37.718Z,4.06
2022-11-03T22:43:39.115Z,4.06
2022-11-03T22:45:40.774Z,4.06
2022-11-03T22:47:42.389Z,4.06
2022-11-03T22:51:45.265Z,4.06
2022-11-03T22:53:46.204Z,4.06
2022-11-03T22:56:56.219Z,4.06
2022-11-03T22:58:57.636Z,4.06
2022-11-03T23:00:59.109Z,4.06
2022-11-03T23:03:00.131Z,4.05
2022-11-03T23:05:01.987Z,4.05
2022-11-03T23:07:02.871Z,4.06
2022-11-03T23:09:04.320Z,4.05
2022-11-03T23:13:07.531Z,4.06
2022-11-03T23:15:08.605Z,4.05
2022-11-03T23:17:10.108Z,4.05
2022-11-03T23:19:11.035Z,4.05
2022-11-03T23:21:12.209Z,4.05
2022-11-03T23:25:15.306Z,4.05
2022-11-03T23:29:18.632Z,4.06
2022-11-03T23:31:19.820Z,4.05
2022-11-03T23:33:21.718Z,4.05
2022-11-03T23:35:23.285Z,4.05
2022-11-03T23:39:25.628Z,4.05
2022-11-03T23:41:27.319Z,4.05
2022-11-03T23:45:30.878Z,4.05
2022-11-03T23:47:32.429Z,4.05
2022-11-03T23:49:34.049Z,4.05
2022-11-03T23:51:35.528Z,4.05
2022-11-03T23:55:38.702Z,4.05
2022-11-03T23:57:40.188Z,4.05
2022-11-03T23:59:41.283Z,4.05
